Moscow, Russia
Current Conditions -  °F | °C
As of 5:30 AM on Saturday 25 Oct 2014 (Local Time) from UUWW Reporting Station
Broken Clouds Broken Clouds  
Wind Chill: 12°   Ceiling: 20000
Heat Index: 12°   Visibility: 5mi
Dew Point:   Wind: 0mph
Humidity: 85%   Direction: NA
Pressure: 30.62"   Gusts: NA
Location:  55.75°N, 37.62°E
Report Text: UUWW 250230Z 00000MPS 8000 BKN200 M11/M13 Q1037 06190060 TEMPO1000 BR SCT004
Loading
Personal Weather Stations






























Interactive Weather Map New forecast layout! Learn more

10-Day Weather Forecast

Advertisements
Track Severe Weather on mobile